createdAt,value
2022-12-23T00:00:09.410Z,9.40
2022-12-23T00:02:57.362Z,9.40
2022-12-23T00:05:45.544Z,9.30
2022-12-23T00:08:33.350Z,9.40
2022-12-23T00:11:21.424Z,9.40
2022-12-23T00:14:26.799Z,9.40
2022-12-23T00:17:22.620Z,9.40
2022-12-23T00:20:13.099Z,9.40
2022-12-23T00:23:06.849Z,9.40
2022-12-23T00:25:54.815Z,9.40
2022-12-23T00:28:42.830Z,9.40
2022-12-23T00:31:30.772Z,9.40
2022-12-23T00:34:19.989Z,9.40
2022-12-23T00:37:07.875Z,9.40
2022-12-23T00:40:13.261Z,9.40
2022-12-23T00:43:02.005Z,9.40
2022-12-23T00:45:49.888Z,9.40
2022-12-23T00:48:55.505Z,9.40
2022-12-23T00:51:44.803Z,9.50
2022-12-23T00:54:32.888Z,9.40
2022-12-23T00:57:20.708Z,9.50
2022-12-23T01:00:09.108Z,9.40
2022-12-23T01:03:14.947Z,9.50
2022-12-23T01:06:03.221Z,9.40
2022-12-23T01:08:52.355Z,9.40
2022-12-23T01:11:40.300Z,9.40
2022-12-23T01:14:28.426Z,9.40
2022-12-23T01:17:16.433Z,9.40
2022-12-23T01:20:04.472Z,9.40
2022-12-23T01:22:52.500Z,9.40
2022-12-23T01:25:41.689Z,9.40
2022-12-23T01:28:30.419Z,9.50
2022-12-23T01:31:18.306Z,9.50
2022-12-23T01:34:06.304Z,9.50
2022-12-23T01:36:54.216Z,9.50
2022-12-23T01:39:42.028Z,9.40
2022-12-23T01:42:46.787Z,9.40
2022-12-23T01:45:35.471Z,9.40
2022-12-23T01:48:25.923Z,9.40
2022-12-23T01:51:15.997Z,9.40
2022-12-23T01:54:03.936Z,9.40
2022-12-23T01:56:52.091Z,9.40
2022-12-23T01:59:59.269Z,9.50
2022-12-23T02:03:05.360Z,9.50
2022-12-23T02:05:54.173Z,9.50
2022-12-23T02:08:59.699Z,9.50
2022-12-23T02:11:58.407Z,9.50
2022-12-23T02:15:12.299Z,9.40
2022-12-23T02:18:06.202Z,9.50
2022-12-23T02:21:03.455Z,9.50
2022-12-23T02:24:09.975Z,9.50
2022-12-23T02:27:01.047Z,9.50
2022-12-23T02:30:03.771Z,9.50
2022-12-23T02:33:04.068Z,9.50
2022-12-23T02:35:56.406Z,9.50
2022-12-23T02:38:47.211Z,9.40
2022-12-23T02:41:38.283Z,9.40
2022-12-23T02:44:30.956Z,9.40
2022-12-23T02:47:21.370Z,9.40
2022-12-23T02:50:13.234Z,9.40
2022-12-23T02:53:02.692Z,9.40
2022-12-23T02:55:51.471Z,9.40
2022-12-23T02:58:42.562Z,9.40
2022-12-23T03:01:32.001Z,9.40
2022-12-23T03:04:19.921Z,9.40
2022-12-23T03:07:18.605Z,9.30
2022-12-23T03:10:09.631Z,9.30
2022-12-23T03:13:02.291Z,9.30
2022-12-23T03:15:53.427Z,9.30
2022-12-23T03:18:46.747Z,9.30
2022-12-23T03:21:36.794Z,9.30
2022-12-23T03:24:32.898Z,9.30
2022-12-23T03:27:25.272Z,9.30
2022-12-23T03:30:14.881Z,9.30
2022-12-23T03:33:03.998Z,9.30
2022-12-23T03:35:54.096Z,9.30
2022-12-23T03:38:42.827Z,9.30
2022-12-23T03:41:35.454Z,9.30
2022-12-23T03:44:25.622Z,9.30
2022-12-23T03:47:15.843Z,9.30
2022-12-23T03:50:05.227Z,9.30
2022-12-23T03:52:56.908Z,9.40
2022-12-23T03:55:47.857Z,9.40
2022-12-23T03:58:39.115Z,9.40
2022-12-23T04:01:32.976Z,9.40
2022-12-23T04:04:25.376Z,9.50
2022-12-23T04:07:16.481Z,9.40
2022-12-23T04:10:04.551Z,9.40
2022-12-23T04:12:52.380Z,9.40
2022-12-23T04:15:42.463Z,9.40
2022-12-23T04:18:30.439Z,9.40
2022-12-23T04:21:18.290Z,9.40
2022-12-23T04:24:06.440Z,9.40
2022-12-23T04:26:54.282Z,9.40
2022-12-23T04:29:42.351Z,9.40
2022-12-23T04:32:31.487Z,9.40
2022-12-23T04:35:19.251Z,9.40
2022-12-23T04:38:07.054Z,9.40
2022-12-23T04:40:54.899Z,9.40
2022-12-23T04:43:45.407Z,9.40
2022-12-23T04:46:35.696Z,9.40
2022-12-23T04:49:24.931Z,9.40
2022-12-23T04:52:12.725Z,9.40
2022-12-23T04:55:00.541Z,9.30
2022-12-23T04:57:48.455Z,9.30
2022-12-23T05:00:39.797Z,9.30
2022-12-23T05:03:28.072Z,9.30
2022-12-23T05:06:17.396Z,9.40
2022-12-23T05:09:05.525Z,9.40
2022-12-23T05:11:53.361Z,9.40
2022-12-23T05:14:41.198Z,9.30
2022-12-23T05:17:29.092Z,9.30
2022-12-23T05:20:16.978Z,9.30
2022-12-23T05:23:06.127Z,9.30
2022-12-23T05:25:54.816Z,9.30
2022-12-23T05:28:43.023Z,9.30
2022-12-23T05:31:30.860Z,9.30
2022-12-23T05:34:18.723Z,9.30
2022-12-23T05:37:07.275Z,9.40
2022-12-23T05:39:56.564Z,9.40
2022-12-23T05:42:44.598Z,9.40
2022-12-23T05:45:32.534Z,9.40
2022-12-23T05:48:20.379Z,9.50
2022-12-23T05:51:08.232Z,9.40
2022-12-23T05:53:56.076Z,9.50
2022-12-23T05:56:45.288Z,9.40
2022-12-23T05:59:33.137Z,9.50
2022-12-23T06:02:22.194Z,9.50
2022-12-23T06:05:10.828Z,9.50
2022-12-23T06:07:58.644Z,9.40
2022-12-23T06:10:46.492Z,9.50
2022-12-23T06:13:35.638Z,9.50
2022-12-23T06:16:23.512Z,9.50
2022-12-23T06:19:11.384Z,9.50
2022-12-23T06:21:59.210Z,9.60
2022-12-23T06:24:47.034Z,9.50
2022-12-23T06:27:34.818Z,9.50
2022-12-23T06:30:24.231Z,9.50
2022-12-23T06:33:12.017Z,9.40
2022-12-23T06:35:59.917Z,9.50
2022-12-23T06:38:48.024Z,9.60
2022-12-23T06:41:35.897Z,9.60
2022-12-23T06:44:24.356Z,9.50
2022-12-23T06:47:13.512Z,9.60
2022-12-23T06:50:01.337Z,9.60
2022-12-23T06:52:49.972Z,9.60
2022-12-23T06:55:37.810Z,9.60
2022-12-23T06:58:25.576Z,9.50
2022-12-23T07:01:13.479Z,9.60
2022-12-23T07:04:03.119Z,9.60
2022-12-23T07:06:50.999Z,9.60
2022-12-23T07:09:38.793Z,9.60
2022-12-23T07:12:26.615Z,9.60
2022-12-23T07:15:17.531Z,9.60
2022-12-23T07:18:05.387Z,9.60
2022-12-23T07:20:54.614Z,9.60
2022-12-23T07:23:42.435Z,9.60
2022-12-23T07:26:30.326Z,9.60
2022-12-23T07:29:18.129Z,9.50
2022-12-23T07:32:06.192Z,9.60
2022-12-23T07:34:54.094Z,9.60
2022-12-23T07:37:43.407Z,9.60
2022-12-23T07:40:31.588Z,9.60
2022-12-23T07:43:19.409Z,9.60
2022-12-23T07:46:07.873Z,9.60
2022-12-23T07:48:55.713Z,9.60
2022-12-23T07:51:43.553Z,9.60
2022-12-23T07:54:32.703Z,9.60
2022-12-23T07:57:20.525Z,9.60
2022-12-23T08:00:09.381Z,9.60
2022-12-23T08:02:57.437Z,9.60
2022-12-23T08:05:45.456Z,9.50
2022-12-23T08:08:33.794Z,9.60
2022-12-23T08:11:22.998Z,9.60
2022-12-23T08:14:10.901Z,9.60
2022-12-23T08:16:58.792Z,9.60
2022-12-23T08:19:46.613Z,9.60
2022-12-23T08:22:34.468Z,9.60
2022-12-23T08:25:22.317Z,9.60
2022-12-23T08:28:11.445Z,9.60
2022-12-23T08:31:04.149Z,9.60
2022-12-23T08:33:53.802Z,9.70
2022-12-23T08:36:41.842Z,9.70
2022-12-23T08:39:30.118Z,9.70
2022-12-23T08:42:18.002Z,9.80
2022-12-23T08:45:07.626Z,9.80
2022-12-23T08:47:55.436Z,9.70
2022-12-23T08:50:44.393Z,9.70
2022-12-23T08:53:32.213Z,9.70
2022-12-23T08:56:21.299Z,9.70
2022-12-23T08:59:18.283Z,9.70
2022-12-23T09:02:10.042Z,9.80
2022-12-23T09:04:57.989Z,9.80
2022-12-23T09:07:45.811Z,9.80
2022-12-23T09:10:33.751Z,9.80
2022-12-23T09:13:29.380Z,9.90
2022-12-23T09:16:22.688Z,9.90
2022-12-23T09:19:11.890Z,9.80
2022-12-23T09:21:59.742Z,9.90
2022-12-23T09:24:47.541Z,9.90
2022-12-23T09:27:35.412Z,9.90
2022-12-23T09:30:23.406Z,9.90
2022-12-23T09:33:11.205Z,9.90
2022-12-23T09:36:02.832Z,9.90
2022-12-23T09:38:54.488Z,9.90
2022-12-23T09:41:49.543Z,9.90
2022-12-23T09:44:45.485Z,9.90
2022-12-23T09:47:34.302Z,9.90
2022-12-23T09:50:25.244Z,9.90
2022-12-23T09:53:16.298Z,9.80
2022-12-23T09:56:09.295Z,9.70
2022-12-23T09:59:04.212Z,9.90
2022-12-23T10:01:56.239Z,10.00
2022-12-23T10:04:47.955Z,9.90
2022-12-23T10:07:38.387Z,10.00
2022-12-23T10:10:30.895Z,10.00
2022-12-23T10:13:24.185Z,10.00
2022-12-23T10:16:13.867Z,9.90
2022-12-23T10:19:03.651Z,10.00
2022-12-23T10:21:52.827Z,9.90
2022-12-23T10:24:42.305Z,10.00
2022-12-23T10:27:33.455Z,10.00
2022-12-23T10:33:33.699Z,10.00
2022-12-23T10:36:24.649Z,10.00
2022-12-23T10:39:15.854Z,10.10
2022-12-23T10:42:07.837Z,10.10
2022-12-23T10:45:11.588Z,10.10
2022-12-23T10:48:08.608Z,10.10
2022-12-23T10:51:02.433Z,10.10
2022-12-23T10:53:53.116Z,10.20
2022-12-23T10:56:41.182Z,10.10
2022-12-23T10:59:30.569Z,10.30
2022-12-23T11:02:38.735Z,10.10
2022-12-23T11:05:29.744Z,10.10
2022-12-23T11:08:18.177Z,10.10
2022-12-23T11:11:07.013Z,10.10
2022-12-23T11:13:54.807Z,10.10
2022-12-23T11:16:46.436Z,10.10
2022-12-23T11:19:38.272Z,10.10
2022-12-23T11:22:26.712Z,10.10
2022-12-23T11:25:25.798Z,10.10
2022-12-23T11:28:14.870Z,10.10
2022-12-23T11:31:05.701Z,10.20
2022-12-23T11:33:56.898Z,10.10
2022-12-23T11:36:55.151Z,10.20
2022-12-23T11:39:47.148Z,10.20
2022-12-23T11:42:36.011Z,10.20
2022-12-23T11:45:25.876Z,10.20
2022-12-23T11:48:27.214Z,10.10
2022-12-23T11:51:25.584Z,10.10
2022-12-23T11:54:19.258Z,10.20
2022-12-23T11:57:10.007Z,10.20
2022-12-23T11:59:58.962Z,10.20
2022-12-23T12:02:48.298Z,10.20
2022-12-23T12:05:37.266Z,10.20
2022-12-23T12:08:27.328Z,10.20
2022-12-23T12:11:18.407Z,10.20
2022-12-23T12:14:07.475Z,10.20
2022-12-23T12:16:57.772Z,10.20
2022-12-23T12:19:50.649Z,10.20
2022-12-23T12:22:41.147Z,10.20
2022-12-23T12:25:39.653Z,10.20
2022-12-23T12:28:33.765Z,10.20
2022-12-23T12:31:24.838Z,10.20
2022-12-23T12:34:17.995Z,10.20
2022-12-23T12:37:08.765Z,10.20
2022-12-23T12:39:59.409Z,10.20
2022-12-23T12:42:49.934Z,10.10
2022-12-23T12:45:43.016Z,10.10
2022-12-23T12:48:35.811Z,10.10
2022-12-23T12:51:25.738Z,10.10
2022-12-23T12:54:17.032Z,10.00
2022-12-23T12:57:05.094Z,10.10
2022-12-23T13:00:01.645Z,10.10
2022-12-23T13:03:06.558Z,10.10
2022-12-23T13:06:01.838Z,10.10
2022-12-23T13:08:57.559Z,10.10
2022-12-23T13:11:49.230Z,10.10
2022-12-23T13:14:45.948Z,10.20
2022-12-23T13:17:35.668Z,10.10
2022-12-23T13:20:29.878Z,10.10
2022-12-23T13:23:43.056Z,10.10
2022-12-23T13:26:32.090Z,10.10
2022-12-23T13:29:32.896Z,10.10
2022-12-23T13:32:27.755Z,10.10
2022-12-23T13:35:25.749Z,10.00
2022-12-23T13:38:21.947Z,10.10
2022-12-23T13:41:15.665Z,10.10
2022-12-23T13:44:05.371Z,10.10
2022-12-23T13:46:56.586Z,10.00
2022-12-23T13:49:49.529Z,10.00
2022-12-23T13:52:47.630Z,10.00
2022-12-23T13:55:47.980Z,10.00
2022-12-23T13:58:36.286Z,10.00
2022-12-23T14:01:36.807Z,9.90
2022-12-23T14:04:32.643Z,9.90
2022-12-23T14:07:21.548Z,9.90
2022-12-23T14:10:13.894Z,9.90
2022-12-23T14:13:05.195Z,9.90
2022-12-23T14:15:57.707Z,9.80
2022-12-23T14:19:05.892Z,9.80
2022-12-23T14:22:01.837Z,9.80
2022-12-23T14:25:07.588Z,9.80
2022-12-23T14:27:59.219Z,9.80
2022-12-23T14:30:48.932Z,9.80
2022-12-23T14:33:39.657Z,9.80
2022-12-23T14:36:28.391Z,9.80
2022-12-23T14:39:29.861Z,9.80
2022-12-23T14:42:34.414Z,9.80
2022-12-23T14:45:29.557Z,9.70
2022-12-23T14:48:32.256Z,9.80
2022-12-23T14:51:25.346Z,9.80
2022-12-23T14:54:15.167Z,9.70
2022-12-23T14:57:06.955Z,9.80
2022-12-23T14:59:59.204Z,9.80
2022-12-23T15:02:47.180Z,9.80
2022-12-23T15:05:38.672Z,9.70
2022-12-23T15:08:33.225Z,9.70
2022-12-23T15:11:26.820Z,9.60
2022-12-23T15:14:17.615Z,9.70
2022-12-23T15:17:18.876Z,9.70
2022-12-23T15:20:13.913Z,9.70
2022-12-23T15:23:02.561Z,9.70
2022-12-23T15:25:51.727Z,9.70
2022-12-23T15:28:40.731Z,9.70
2022-12-23T15:31:30.587Z,9.70
2022-12-23T15:34:21.917Z,9.70
2022-12-23T15:37:12.209Z,9.70
2022-12-23T15:40:09.910Z,9.70
2022-12-23T15:43:02.904Z,9.70
2022-12-23T15:45:51.132Z,9.70
2022-12-23T15:48:39.359Z,9.60
2022-12-23T15:54:44.514Z,9.70
2022-12-23T15:57:32.484Z,9.60
2022-12-23T16:00:23.277Z,9.60
2022-12-23T16:03:23.224Z,9.70
2022-12-23T16:06:15.996Z,9.60
2022-12-23T16:09:05.368Z,9.70
2022-12-23T16:11:56.920Z,9.70
2022-12-23T16:14:52.197Z,9.70
2022-12-23T16:17:41.447Z,9.60
2022-12-23T16:20:29.412Z,9.70
2022-12-23T16:23:18.169Z,9.70
2022-12-23T16:26:06.353Z,9.70
2022-12-23T16:28:58.708Z,9.70
2022-12-23T16:31:54.300Z,9.70
2022-12-23T16:34:51.044Z,9.70
2022-12-23T16:37:39.201Z,9.70
2022-12-23T16:40:27.133Z,9.70
2022-12-23T16:43:15.474Z,9.70
2022-12-23T16:46:03.604Z,9.80
2022-12-23T16:48:52.759Z,9.80
2022-12-23T16:51:45.859Z,9.80
2022-12-23T16:54:33.732Z,9.80
2022-12-23T16:57:21.539Z,9.70
2022-12-23T17:00:11.194Z,9.70
2022-12-23T17:02:59.039Z,9.70
2022-12-23T17:05:47.435Z,9.80
2022-12-23T17:08:36.613Z,9.80
2022-12-23T17:11:28.912Z,9.80
2022-12-23T17:14:17.772Z,9.80
2022-12-23T17:17:15.397Z,9.80
2022-12-23T17:20:03.229Z,9.70
2022-12-23T17:22:53.473Z,9.80
2022-12-23T17:25:42.649Z,9.80
2022-12-23T17:28:31.888Z,9.80
2022-12-23T17:31:26.740Z,9.80
2022-12-23T17:34:15.973Z,9.80
2022-12-23T17:37:11.559Z,9.80
2022-12-23T17:39:59.603Z,9.80
2022-12-23T17:42:49.114Z,9.80
2022-12-23T17:45:37.036Z,9.70
2022-12-23T17:48:31.211Z,9.80
2022-12-23T17:51:20.585Z,9.80
2022-12-23T17:54:08.495Z,9.80
2022-12-23T17:56:56.325Z,9.90
2022-12-23T17:59:47.796Z,9.90
2022-12-23T18:02:36.393Z,9.90
2022-12-23T18:05:26.068Z,9.90
2022-12-23T18:08:14.115Z,9.90
2022-12-23T18:11:02.810Z,9.90
2022-12-23T18:13:51.406Z,9.90
2022-12-23T18:16:40.790Z,10.00
2022-12-23T18:19:28.686Z,10.00
2022-12-23T18:22:18.519Z,10.00
2022-12-23T18:25:06.711Z,10.00
2022-12-23T18:27:55.230Z,10.10
2022-12-23T18:30:45.837Z,10.10
2022-12-23T18:33:35.039Z,10.20
2022-12-23T18:36:27.097Z,10.20
2022-12-23T18:39:15.200Z,10.20
2022-12-23T18:42:03.160Z,10.20
2022-12-23T18:44:51.304Z,10.30
2022-12-23T18:47:39.133Z,10.30
2022-12-23T18:50:28.504Z,10.30
2022-12-23T18:53:23.350Z,10.40
2022-12-23T18:56:13.678Z,10.40
2022-12-23T18:59:01.536Z,10.40
2022-12-23T19:01:50.056Z,10.40
2022-12-23T19:04:37.944Z,10.50
2022-12-23T19:07:27.129Z,10.50
2022-12-23T19:10:21.153Z,10.50
2022-12-23T19:13:09.700Z,10.50
2022-12-23T19:15:57.934Z,10.60
2022-12-23T19:18:46.125Z,10.60
2022-12-23T19:21:34.438Z,10.60
2022-12-23T19:24:23.585Z,10.60
2022-12-23T19:27:11.714Z,10.60
2022-12-23T19:29:59.567Z,10.70
2022-12-23T19:32:49.953Z,10.70
2022-12-23T19:35:37.785Z,10.60
2022-12-23T19:38:28.631Z,10.60
2022-12-23T19:41:19.215Z,10.70
2022-12-23T19:44:07.117Z,10.70
2022-12-23T19:46:55.061Z,10.70
2022-12-23T19:49:42.856Z,10.70
2022-12-23T19:52:30.667Z,10.70
2022-12-23T19:55:18.608Z,10.70
2022-12-23T19:58:07.781Z,10.60
2022-12-23T20:01:05.518Z,10.60
2022-12-23T20:03:54.063Z,10.60
2022-12-23T20:06:42.605Z,10.70
2022-12-23T20:09:30.370Z,10.60
2022-12-23T20:12:19.049Z,10.70
2022-12-23T20:15:10.078Z,10.70
2022-12-23T20:17:57.948Z,10.70
2022-12-23T20:20:45.794Z,10.70
2022-12-23T20:23:33.813Z,10.70
2022-12-23T20:26:22.424Z,10.70
2022-12-23T20:29:10.798Z,10.80
2022-12-23T20:32:00.004Z,10.70
2022-12-23T20:34:49.947Z,10.70
2022-12-23T20:37:37.780Z,10.70
2022-12-23T20:40:25.667Z,10.70
2022-12-23T20:43:15.528Z,10.70
2022-12-23T20:46:04.195Z,10.60
2022-12-23T20:48:53.497Z,10.60
2022-12-23T20:51:41.316Z,10.60
2022-12-23T20:54:33.226Z,10.60
2022-12-23T20:57:21.664Z,10.60
2022-12-23T21:00:10.111Z,10.60
2022-12-23T21:02:58.099Z,10.60
2022-12-23T21:05:47.287Z,10.60
2022-12-23T21:08:35.117Z,10.70
2022-12-23T21:11:24.240Z,10.70
2022-12-23T21:14:12.468Z,10.70
2022-12-23T21:17:00.319Z,10.60
2022-12-23T21:19:48.198Z,10.60
2022-12-23T21:22:37.380Z,10.60
2022-12-23T21:25:25.215Z,10.60
2022-12-23T21:28:13.068Z,10.50
2022-12-23T21:31:01.032Z,10.50
2022-12-23T21:33:50.520Z,10.50
2022-12-23T21:36:39.331Z,10.50
2022-12-23T21:39:28.912Z,10.50
2022-12-23T21:42:16.839Z,10.50
2022-12-23T21:45:06.596Z,10.50
2022-12-23T21:47:54.446Z,10.50
2022-12-23T21:50:42.317Z,10.60
2022-12-23T21:53:30.133Z,10.60
2022-12-23T21:56:20.445Z,10.50
2022-12-23T21:59:09.706Z,10.50
2022-12-23T22:01:57.583Z,10.50
2022-12-23T22:04:45.569Z,10.50
2022-12-23T22:07:33.446Z,10.50
2022-12-23T22:10:22.044Z,10.50
2022-12-23T22:13:11.200Z,10.50
2022-12-23T22:15:59.023Z,10.50
2022-12-23T22:18:47.625Z,10.40
2022-12-23T22:21:36.226Z,10.50
2022-12-23T22:24:24.068Z,10.40
2022-12-23T22:27:11.955Z,10.50
2022-12-23T22:30:02.474Z,10.50
2022-12-23T22:32:50.380Z,10.50
2022-12-23T22:35:38.190Z,10.50
2022-12-23T22:38:26.046Z,10.50
2022-12-23T22:41:16.047Z,10.50
2022-12-23T22:44:03.867Z,10.50
2022-12-23T22:46:53.319Z,10.50
2022-12-23T22:49:41.597Z,10.50
2022-12-23T22:52:29.924Z,10.50
2022-12-23T22:55:17.795Z,10.40
2022-12-23T22:58:05.604Z,10.40
2022-12-23T23:00:53.521Z,10.40
2022-12-23T23:03:42.672Z,10.40
2022-12-23T23:06:32.264Z,10.40
2022-12-23T23:09:20.703Z,10.40
2022-12-23T23:12:08.607Z,10.30
2022-12-23T23:14:56.461Z,10.30
2022-12-23T23:17:44.285Z,10.30
2022-12-23T23:20:33.447Z,10.30
2022-12-23T23:23:21.477Z,10.30
2022-12-23T23:26:10.267Z,10.20
2022-12-23T23:28:58.264Z,10.20
2022-12-23T23:31:46.136Z,10.20
2022-12-23T23:34:34.260Z,10.10
2022-12-23T23:37:23.621Z,10.10
2022-12-23T23:40:11.795Z,10.00
2022-12-23T23:42:59.616Z,10.00
2022-12-23T23:45:47.589Z,10.10
2022-12-23T23:48:35.508Z,10.00
2022-12-23T23:51:23.526Z,10.00
2022-12-23T23:54:12.727Z,10.00
2022-12-23T23:57:00.641Z,10.00
2022-12-23T23:59:48.502Z,10.00
